createdAt,value
2018-02-19T00:01:19.673Z,23.23
2018-02-19T00:03:47.119Z,22.03
2018-02-19T00:06:14.552Z,22.00
2018-02-19T00:08:41.965Z,23.08
2018-02-19T00:11:09.373Z,22.83
2018-02-19T00:13:37.419Z,22.70
2018-02-19T00:16:04.827Z,24.33
2018-02-19T00:18:32.254Z,25.83
2018-02-19T00:20:59.687Z,21.33
2018-02-19T00:23:27.086Z,21.10
2018-02-19T00:25:54.507Z,21.67
2018-02-19T00:28:21.926Z,22.00
2018-02-19T00:30:49.344Z,20.77
2018-02-19T00:33:16.759Z,20.53
2018-02-19T00:35:44.214Z,20.73
2018-02-19T00:38:11.662Z,19.50
2018-02-19T00:40:39.094Z,20.73
2018-02-19T00:43:06.506Z,18.80
2018-02-19T00:45:33.972Z,19.50
2018-02-19T00:48:01.397Z,18.60
2018-02-19T00:50:28.809Z,16.10
2018-02-19T00:52:56.209Z,16.10
2018-02-19T00:55:23.672Z,15.03
2018-02-19T00:57:51.090Z,16.02
2018-02-19T01:00:18.514Z,16.93
2018-02-19T01:02:46.016Z,15.37
2018-02-19T01:05:13.437Z,16.55
2018-02-19T01:07:40.885Z,17.50
2018-02-19T01:10:08.341Z,19.00
2018-02-19T01:12:35.754Z,18.00
2018-02-19T01:15:03.173Z,20.53
2018-02-19T01:17:30.592Z,17.20
2018-02-19T01:19:58.030Z,20.12
2018-02-19T01:22:25.453Z,19.27
2018-02-19T01:24:52.970Z,19.43
2018-02-19T01:27:20.422Z,19.53
2018-02-19T01:29:47.862Z,20.00
2018-02-19T01:32:15.272Z,20.57
2018-02-19T01:34:42.673Z,21.20
2018-02-19T01:37:10.848Z,19.27
2018-02-19T01:39:38.290Z,22.23
2018-02-19T01:42:05.717Z,21.90
2018-02-19T01:44:33.146Z,21.02
2018-02-19T01:47:00.642Z,21.17
2018-02-19T01:49:28.037Z,22.23
2018-02-19T01:51:55.549Z,22.23
2018-02-19T01:54:22.990Z,23.97
2018-02-19T01:56:50.422Z,20.70
2018-02-19T01:59:17.817Z,23.50
2018-02-19T02:01:45.314Z,21.50
2018-02-19T02:04:12.731Z,23.40
2018-02-19T02:06:40.141Z,24.07
2018-02-19T02:09:07.566Z,23.83
2018-02-19T02:11:34.989Z,22.77
2018-02-19T02:14:02.482Z,22.08
2018-02-19T02:16:29.893Z,22.30
2018-02-19T02:18:57.468Z,22.43
2018-02-19T02:21:24.894Z,24.07
2018-02-19T02:23:52.319Z,25.50
2018-02-19T02:26:19.744Z,24.00
2018-02-19T02:28:47.154Z,25.83
2018-02-19T02:31:14.563Z,23.73
2018-02-19T02:33:41.994Z,23.37
2018-02-19T02:36:09.449Z,24.77
2018-02-19T02:38:36.876Z,23.70
2018-02-19T02:41:04.307Z,24.50
2018-02-19T02:43:31.738Z,23.58
2018-02-19T02:45:59.179Z,24.40
2018-02-19T02:48:26.594Z,23.27
2018-02-19T02:50:54.171Z,25.33
2018-02-19T02:53:21.596Z,24.90
2018-02-19T02:55:49.018Z,23.97
2018-02-19T02:58:16.524Z,23.45
2018-02-19T03:00:44.734Z,23.30
2018-02-19T03:03:12.159Z,22.40
2018-02-19T03:05:39.584Z,23.00
2018-02-19T03:08:07.033Z,25.88
2018-02-19T03:10:34.451Z,23.13
2018-02-19T03:13:01.901Z,23.30
2018-02-19T03:15:29.331Z,23.25
2018-02-19T03:17:56.756Z,24.77
2018-02-19T03:20:24.174Z,24.73
2018-02-19T03:22:51.599Z,24.60
2018-02-19T03:25:19.049Z,24.67
2018-02-19T03:27:46.464Z,24.27
2018-02-19T03:30:13.880Z,24.97
2018-02-19T03:32:41.303Z,25.20
2018-02-19T03:35:08.718Z,23.77
2018-02-19T03:37:36.255Z,25.00
2018-02-19T03:40:03.716Z,25.20
2018-02-19T03:42:31.149Z,27.33
2018-02-19T03:44:58.558Z,27.23
2018-02-19T03:47:26.032Z,26.92
2018-02-19T03:49:53.445Z,25.37
2018-02-19T03:52:20.913Z,25.57
2018-02-19T03:54:48.381Z,27.00
2018-02-19T03:57:15.790Z,24.63
2018-02-19T03:59:43.219Z,23.50
2018-02-19T04:02:10.633Z,22.73
2018-02-19T04:04:38.065Z,25.03
2018-02-19T04:07:05.527Z,25.70
2018-02-19T04:09:32.955Z,23.67
2018-02-19T04:12:00.365Z,23.50
2018-02-19T04:14:27.795Z,22.43
2018-02-19T04:16:55.214Z,21.40
2018-02-19T04:19:22.628Z,22.60
2018-02-19T04:21:50.070Z,23.07
2018-02-19T04:24:17.532Z,24.40
2018-02-19T04:26:44.931Z,24.80
2018-02-19T04:29:12.362Z,22.77
2018-02-19T04:31:39.771Z,23.50
2018-02-19T04:34:07.183Z,28.30
2018-02-19T04:36:34.596Z,25.17
2018-02-19T04:39:02.092Z,22.70
2018-02-19T04:41:29.510Z,24.80
2018-02-19T04:43:56.945Z,26.20
2018-02-19T04:46:40.783Z,28.10
2018-02-19T04:49:08.209Z,25.20
2018-02-19T04:51:35.629Z,28.70
2018-02-19T04:54:03.068Z,27.07
2018-02-19T04:56:30.505Z,26.60
2018-02-19T04:58:57.930Z,27.63
2018-02-19T05:01:25.346Z,26.83
2018-02-19T05:03:52.778Z,26.90
2018-02-19T05:06:21.028Z,25.52
2018-02-19T05:08:48.473Z,25.50
2018-02-19T05:11:15.891Z,31.17
2018-02-19T05:13:43.309Z,26.17
2018-02-19T05:16:10.736Z,25.20
2018-02-19T05:18:38.167Z,24.73
2018-02-19T05:21:05.610Z,25.80
2018-02-19T05:23:33.018Z,24.03
2018-02-19T05:26:00.470Z,23.50
2018-02-19T05:28:27.882Z,23.15
2018-02-19T05:30:55.334Z,23.40
2018-02-19T05:33:22.750Z,24.30
2018-02-19T05:35:50.173Z,22.33
2018-02-19T05:38:17.586Z,22.47
2018-02-19T05:40:45.034Z,22.17
2018-02-19T05:43:13.060Z,25.50
2018-02-19T05:45:40.584Z,25.25
2018-02-19T05:48:08.028Z,26.47
2018-02-19T05:50:35.453Z,26.00
2018-02-19T05:53:02.898Z,26.83
2018-02-19T05:55:30.358Z,25.30
2018-02-19T05:57:57.826Z,24.60
2018-02-19T06:00:25.267Z,24.40
2018-02-19T06:02:53.242Z,24.75
2018-02-19T06:05:20.719Z,22.37
2018-02-19T06:07:48.097Z,25.27
2018-02-19T06:10:15.535Z,23.50
2018-02-19T06:12:42.966Z,24.30
2018-02-19T06:15:10.387Z,24.50
2018-02-19T06:20:11.614Z,25.88
2018-02-19T06:22:39.059Z,26.33
2018-02-19T06:25:06.461Z,28.73
2018-02-19T06:27:33.926Z,27.37
2018-02-19T06:30:01.333Z,24.77
2018-02-19T06:32:28.805Z,24.23
2018-02-19T06:34:56.210Z,27.50
2018-02-19T06:37:24.181Z,24.65
2018-02-19T06:39:51.591Z,23.23
2018-02-19T06:42:18.997Z,21.53
2018-02-19T06:44:46.495Z,21.17
2018-02-19T06:47:13.953Z,19.20
2018-02-19T06:49:41.396Z,22.37
2018-02-19T06:52:08.823Z,19.53
2018-02-19T06:54:36.224Z,22.50
2018-02-19T06:57:03.655Z,20.27
2018-02-19T06:59:31.108Z,21.30
2018-02-19T07:01:58.525Z,22.45
2018-02-19T07:04:25.946Z,20.00
2018-02-19T07:06:53.370Z,18.83
2018-02-19T07:09:20.770Z,19.52
2018-02-19T07:11:48.188Z,19.80
2018-02-19T07:14:15.601Z,24.23
2018-02-19T07:16:43.092Z,22.47
2018-02-19T07:19:10.535Z,24.70
2018-02-19T07:21:37.959Z,24.97
2018-02-19T07:24:05.378Z,26.13
2018-02-19T07:26:32.833Z,27.30
2018-02-19T07:29:00.237Z,24.44
2018-02-19T07:31:27.705Z,26.00
2018-02-19T07:33:55.526Z,26.60
2018-02-19T07:36:22.943Z,25.60
2018-02-19T07:38:50.358Z,27.70
2018-02-19T07:41:17.779Z,28.03
2018-02-19T07:43:45.187Z,30.87
2018-02-19T07:46:12.590Z,26.20
2018-02-19T07:48:40.023Z,29.77
2018-02-19T07:51:07.429Z,26.40
2018-02-19T07:53:34.924Z,27.25
2018-02-19T07:56:02.342Z,25.00
2018-02-19T07:58:29.814Z,26.07
2018-02-19T08:00:57.181Z,28.60
2018-02-19T08:03:24.606Z,31.33
2018-02-19T08:05:52.028Z,25.70
2018-02-19T08:08:19.466Z,22.67
2018-02-19T08:10:46.869Z,24.33
2018-02-19T08:13:14.295Z,24.13
2018-02-19T08:15:41.726Z,30.73
2018-02-19T08:18:09.140Z,24.27
2018-02-19T08:20:36.541Z,21.07
2018-02-19T08:23:03.964Z,22.97
2018-02-19T08:25:31.375Z,23.30
2018-02-19T08:27:58.825Z,24.25
2018-02-19T08:30:27.030Z,25.05
2018-02-19T08:32:54.441Z,21.03
2018-02-19T08:35:21.898Z,22.40
2018-02-19T08:37:49.313Z,20.77
2018-02-19T08:40:16.750Z,24.40
2018-02-19T08:42:44.166Z,22.42
2018-02-19T08:45:11.647Z,23.03
2018-02-19T08:47:39.622Z,24.47
2018-02-19T08:50:07.062Z,24.10
2018-02-19T08:52:34.475Z,21.57
2018-02-19T08:55:01.906Z,24.27
2018-02-19T08:57:29.312Z,22.97
2018-02-19T08:59:56.733Z,23.97
2018-02-19T09:02:24.183Z,21.30
2018-02-19T09:04:51.612Z,21.20
2018-02-19T09:07:19.060Z,22.07
2018-02-19T09:09:46.493Z,21.67
2018-02-19T09:12:13.928Z,20.93
2018-02-19T09:14:41.449Z,21.70
2018-02-19T09:17:09.279Z,23.03
2018-02-19T09:19:36.702Z,22.63
2018-02-19T09:22:04.118Z,25.10
2018-02-19T09:24:31.594Z,24.70
2018-02-19T09:26:58.989Z,25.10
2018-02-19T09:29:26.410Z,25.00
2018-02-19T09:31:53.816Z,24.00
2018-02-19T09:34:21.251Z,23.47
2018-02-19T09:36:48.665Z,22.97
2018-02-19T09:39:16.106Z,22.95
2018-02-19T09:41:43.556Z,22.20
2018-02-19T09:44:10.997Z,26.50
2018-02-19T09:46:38.437Z,21.07
2018-02-19T09:49:05.835Z,25.07
2018-02-19T09:51:33.284Z,25.00
2018-02-19T09:54:00.689Z,25.23
2018-02-19T09:56:28.121Z,20.17
2018-02-19T09:58:55.596Z,24.50
2018-02-19T10:01:23.089Z,25.17
2018-02-19T10:03:50.501Z,22.43
2018-02-19T10:06:17.920Z,19.43
2018-02-19T10:08:45.378Z,23.83
2018-02-19T10:11:12.789Z,25.53
2018-02-19T10:13:40.209Z,22.40
2018-02-19T10:16:07.639Z,25.27
2018-02-19T10:18:35.056Z,21.97
2018-02-19T10:21:02.481Z,25.62
2018-02-19T10:23:30.658Z,26.40
2018-02-19T10:25:58.080Z,25.20
2018-02-19T10:28:25.492Z,23.03
2018-02-19T10:30:52.918Z,25.30
2018-02-19T10:33:20.324Z,22.80
2018-02-19T10:35:47.760Z,24.77
2018-02-19T10:38:15.183Z,24.63
2018-02-19T10:40:42.621Z,24.40
2018-02-19T10:43:10.052Z,22.00
2018-02-19T10:45:37.461Z,23.70
2018-02-19T10:48:04.883Z,25.70
2018-02-19T10:50:32.305Z,23.73
2018-02-19T10:52:59.754Z,24.53
2018-02-19T10:55:27.192Z,24.43
2018-02-19T10:57:54.771Z,24.23
2018-02-19T11:00:27.859Z,22.07
2018-02-19T11:02:55.394Z,20.90
2018-02-19T11:05:22.801Z,24.13
2018-02-19T11:07:50.229Z,23.23
2018-02-19T11:10:17.635Z,21.73
2018-02-19T11:12:45.047Z,22.90
2018-02-19T11:15:12.467Z,22.10
2018-02-19T11:17:39.893Z,24.13
2018-02-19T11:20:07.300Z,22.80
2018-02-19T11:22:34.735Z,20.97
2018-02-19T11:25:02.893Z,22.25
2018-02-19T11:27:30.318Z,25.23
2018-02-19T11:29:57.736Z,24.20
2018-02-19T11:32:25.178Z,23.33
2018-02-19T11:34:52.605Z,24.73
2018-02-19T11:37:20.029Z,22.50
2018-02-19T11:39:47.459Z,22.00
2018-02-19T11:42:14.915Z,23.80
2018-02-19T11:44:42.349Z,20.12
2018-02-19T11:47:09.829Z,21.33
2018-02-19T11:49:37.250Z,23.27
2018-02-19T11:52:04.749Z,21.45
2018-02-19T11:54:32.166Z,21.90
2018-02-19T11:56:59.594Z,21.87
2018-02-19T11:59:27.075Z,20.33
2018-02-19T12:01:54.494Z,20.70
2018-02-19T12:04:21.930Z,21.00
2018-02-19T12:06:49.385Z,21.10
2018-02-19T12:09:16.809Z,19.53
2018-02-19T12:11:44.245Z,21.60
2018-02-19T12:14:11.682Z,20.27
2018-02-19T12:16:39.159Z,18.00
2018-02-19T12:19:06.590Z,20.83
2018-02-19T12:21:35.015Z,22.45
2018-02-19T12:24:02.452Z,21.70
2018-02-19T12:26:29.873Z,24.30
2018-02-19T12:28:57.286Z,18.43
2018-02-19T12:31:24.705Z,22.60
2018-02-19T12:33:52.149Z,22.55
2018-02-19T12:36:19.855Z,21.33
2018-02-19T12:38:47.266Z,21.70
2018-02-19T12:41:14.665Z,20.27
2018-02-19T12:43:42.087Z,21.00
2018-02-19T12:46:09.499Z,18.13
2018-02-19T12:48:36.960Z,17.60
2018-02-19T12:51:04.376Z,17.57
2018-02-19T12:53:31.813Z,20.40
2018-02-19T12:55:59.218Z,19.10
2018-02-19T12:58:26.642Z,18.90
2018-02-19T13:00:54.084Z,17.37
2018-02-19T13:03:21.502Z,16.87
2018-02-19T13:05:48.912Z,17.73
2018-02-19T13:08:16.330Z,18.03
2018-02-19T13:10:43.779Z,19.50
2018-02-19T13:13:11.206Z,19.97
2018-02-19T13:15:38.730Z,20.10
2018-02-19T13:18:07.137Z,22.27
2018-02-19T13:20:34.555Z,20.73
2018-02-19T13:23:01.982Z,18.10
2018-02-19T13:25:29.429Z,21.87
2018-02-19T13:27:56.822Z,22.70
2018-02-19T13:30:24.244Z,22.13
2018-02-19T13:32:51.703Z,20.62
2018-02-19T13:35:19.083Z,19.00
2018-02-19T13:37:46.509Z,24.30
2018-02-19T13:40:14.002Z,21.47
2018-02-19T13:42:41.414Z,20.10
2018-02-19T13:45:08.830Z,20.97
2018-02-19T13:47:36.255Z,20.37
2018-02-19T13:50:03.700Z,20.37
2018-02-19T13:52:31.184Z,21.23
2018-02-19T13:54:58.633Z,22.33
2018-02-19T13:57:26.062Z,21.33
2018-02-19T13:59:53.490Z,33.13
2018-02-19T14:02:20.904Z,24.87
2018-02-19T14:04:48.332Z,23.33
2018-02-19T14:07:15.738Z,23.07
2018-02-19T14:09:43.153Z,22.60
2018-02-19T14:12:10.582Z,20.13
2018-02-19T14:14:38.040Z,24.10
2018-02-19T14:17:05.539Z,21.62
2018-02-19T14:19:32.996Z,24.27
2018-02-19T14:22:00.420Z,23.17
2018-02-19T14:24:27.853Z,25.10
2018-02-19T14:26:55.258Z,26.33
2018-02-19T14:29:22.718Z,20.00
2018-02-19T14:31:50.127Z,24.50
2018-02-19T14:34:17.553Z,20.30
2018-02-19T14:36:44.968Z,22.80
2018-02-19T14:39:12.386Z,20.67
2018-02-19T14:41:40.533Z,24.10
2018-02-19T14:44:08.046Z,20.87
2018-02-19T14:46:35.461Z,21.83
2018-02-19T14:49:02.869Z,21.67
2018-02-19T14:51:30.343Z,24.40
2018-02-19T14:53:57.719Z,23.27
2018-02-19T14:56:25.176Z,24.08
2018-02-19T14:58:52.613Z,23.77
2018-02-19T15:01:20.035Z,29.40
2018-02-19T15:03:47.473Z,23.77
2018-02-19T15:06:14.886Z,23.97
2018-02-19T15:08:42.406Z,28.10
2018-02-19T15:11:09.918Z,23.73
2018-02-19T15:13:37.338Z,31.33
2018-02-19T15:16:04.813Z,22.83
2018-02-19T15:18:32.257Z,23.00
2018-02-19T15:23:33.432Z,18.47
2018-02-19T15:26:00.852Z,24.17
2018-02-19T15:28:28.262Z,23.80
2018-02-19T15:30:55.674Z,20.85
2018-02-19T15:33:23.102Z,18.90
2018-02-19T15:35:50.569Z,22.67
2018-02-19T15:38:18.017Z,24.65
2018-02-19T15:40:45.442Z,22.30
2018-02-19T15:43:13.387Z,24.37
2018-02-19T15:45:40.825Z,21.37
2018-02-19T15:48:08.238Z,22.37
2018-02-19T15:50:35.653Z,19.20
2018-02-19T15:53:03.068Z,24.83
2018-02-19T15:55:30.497Z,23.80
2018-02-19T15:57:57.911Z,22.63
2018-02-19T16:00:25.424Z,21.70
2018-02-19T16:02:52.926Z,20.50
2018-02-19T16:05:20.334Z,23.73
2018-02-19T16:07:47.774Z,22.70
2018-02-19T16:10:15.190Z,21.63
2018-02-19T16:12:42.602Z,20.83
2018-02-19T16:15:10.037Z,21.20
2018-02-19T16:17:37.482Z,21.30
2018-02-19T16:20:04.891Z,19.98
2018-02-19T16:22:32.314Z,24.83
2018-02-19T16:24:59.754Z,22.30
2018-02-19T16:27:27.185Z,22.95
2018-02-19T16:29:54.602Z,23.87
2018-02-19T16:32:22.016Z,24.33
2018-02-19T16:34:49.422Z,22.83
2018-02-19T16:37:16.904Z,22.27
2018-02-19T16:39:44.769Z,25.60
2018-02-19T16:42:12.192Z,24.13
2018-02-19T16:44:39.613Z,22.30
2018-02-19T16:47:07.028Z,23.20
2018-02-19T16:49:34.514Z,22.10
2018-02-19T16:52:01.954Z,22.83
2018-02-19T16:54:30.059Z,24.93
2018-02-19T16:56:57.489Z,24.27
2018-02-19T16:59:24.914Z,23.03
2018-02-19T17:01:52.362Z,22.30
2018-02-19T17:04:20.875Z,23.60
2018-02-19T17:06:48.315Z,22.30
2018-02-19T17:09:15.731Z,23.17
2018-02-19T17:11:43.146Z,21.60
2018-02-19T17:14:10.562Z,23.45
2018-02-19T17:16:37.985Z,24.00
2018-02-19T17:19:05.400Z,20.33
2018-02-19T17:21:32.818Z,24.43
2018-02-19T17:24:00.386Z,22.17
2018-02-19T17:26:27.799Z,24.00
2018-02-19T17:28:55.226Z,23.58
2018-02-19T17:31:22.643Z,22.33
2018-02-19T17:33:50.066Z,23.13
2018-02-19T17:36:17.544Z,22.60
2018-02-19T17:38:44.949Z,22.90
2018-02-19T17:41:12.403Z,24.27
2018-02-19T17:43:39.821Z,22.00
2018-02-19T17:46:07.239Z,24.02
2018-02-19T17:48:34.667Z,25.17
2018-02-19T17:51:02.120Z,23.00
2018-02-19T17:53:29.590Z,23.30
2018-02-19T17:55:57.255Z,22.80
2018-02-19T17:58:24.711Z,23.23
2018-02-19T18:00:52.155Z,24.93
2018-02-19T18:03:20.180Z,22.77
2018-02-19T18:05:47.588Z,22.70
2018-02-19T18:08:15.001Z,23.50
2018-02-19T18:10:42.452Z,25.13
2018-02-19T18:13:09.999Z,24.73
2018-02-19T18:15:37.374Z,23.37
2018-02-19T18:18:04.828Z,24.77
2018-02-19T18:20:32.234Z,24.07
2018-02-19T18:22:59.659Z,25.33
2018-02-19T18:25:27.070Z,24.87
2018-02-19T18:27:54.490Z,26.03
2018-02-19T18:30:22.021Z,26.23
2018-02-19T18:32:49.473Z,26.83
2018-02-19T18:35:16.874Z,26.27
2018-02-19T18:37:44.289Z,27.47
2018-02-19T18:40:11.699Z,26.20
2018-02-19T18:42:40.152Z,25.53
2018-02-19T18:45:07.657Z,23.13
2018-02-19T18:47:35.083Z,24.67
2018-02-19T18:50:02.496Z,26.27
2018-02-19T18:52:29.941Z,25.80
2018-02-19T18:54:57.354Z,24.75
2018-02-19T18:57:24.837Z,26.23
2018-02-19T18:59:52.884Z,23.77
2018-02-19T19:02:20.333Z,26.10
2018-02-19T19:04:47.752Z,23.87
2018-02-19T19:07:26.861Z,24.70
2018-02-19T19:10:06.127Z,24.50
2018-02-19T19:12:33.578Z,25.70
2018-02-19T19:15:01.001Z,26.90
2018-02-19T19:17:28.409Z,23.87
2018-02-19T19:19:55.837Z,25.97
2018-02-19T19:22:23.424Z,25.40
2018-02-19T19:24:50.837Z,25.70
2018-02-19T19:27:18.269Z,27.10
2018-02-19T19:29:45.704Z,29.00
2018-02-19T19:32:13.107Z,27.47
2018-02-19T19:34:40.532Z,26.40
2018-02-19T19:37:07.948Z,27.60
2018-02-19T19:39:35.357Z,23.77
2018-02-19T19:42:02.840Z,29.85
2018-02-19T19:44:30.256Z,28.30
2018-02-19T19:46:57.665Z,28.03
2018-02-19T19:49:25.090Z,29.67
2018-02-19T19:51:52.517Z,30.70
2018-02-19T19:54:19.941Z,26.30
2018-02-19T19:56:47.364Z,28.57
2018-02-19T19:59:14.790Z,29.83
2018-02-19T20:01:42.260Z,26.65
2018-02-19T20:04:09.723Z,30.03
2018-02-19T20:06:37.158Z,26.73
2018-02-19T20:09:04.578Z,28.92
2018-02-19T20:11:32.169Z,30.40
2018-02-19T20:13:59.592Z,27.83
2018-02-19T20:16:27.034Z,28.23
2018-02-19T20:18:55.024Z,30.62
2018-02-19T20:21:22.433Z,31.93
2018-02-19T20:23:49.859Z,29.10
2018-02-19T20:26:17.279Z,29.10
2018-02-19T20:28:44.705Z,32.27
2018-02-19T20:31:12.135Z,27.95
2018-02-19T20:33:39.555Z,28.27
2018-02-19T20:36:07.013Z,29.43
2018-02-19T20:38:34.446Z,29.90
2018-02-19T20:41:01.895Z,28.53
2018-02-19T20:43:29.336Z,31.00
2018-02-19T20:45:56.739Z,31.17
2018-02-19T20:48:24.172Z,30.87
2018-02-19T20:50:51.688Z,29.23
2018-02-19T20:53:19.111Z,29.50
2018-02-19T20:55:46.723Z,29.70
2018-02-19T20:58:14.171Z,28.83
2018-02-19T21:00:41.627Z,29.07
2018-02-19T21:03:09.062Z,30.40
2018-02-19T21:05:36.505Z,30.43
2018-02-19T21:08:03.922Z,29.83
2018-02-19T21:10:31.337Z,31.75
2018-02-19T21:12:58.804Z,30.17
2018-02-19T21:15:26.483Z,29.23
2018-02-19T21:17:53.924Z,27.57
2018-02-19T21:20:24.173Z,30.13
2018-02-19T21:22:51.573Z,27.15
2018-02-19T21:25:19.011Z,30.63
2018-02-19T21:27:46.451Z,29.50
2018-02-19T21:30:13.861Z,31.20
2018-02-19T21:32:41.284Z,24.50
2018-02-19T21:35:08.745Z,32.77
2018-02-19T21:37:36.174Z,30.33
2018-02-19T21:40:03.640Z,31.90
2018-02-19T21:42:31.072Z,33.97
2018-02-19T21:44:58.502Z,30.97
2018-02-19T21:47:25.931Z,30.20
2018-02-19T21:49:53.367Z,32.08
2018-02-19T21:52:20.774Z,31.07
2018-02-19T21:54:48.275Z,29.70
2018-02-19T21:57:15.726Z,31.43
2018-02-19T22:02:40.213Z,31.37
2018-02-19T22:05:07.641Z,33.10
2018-02-19T22:07:35.056Z,33.27
2018-02-19T22:10:02.475Z,30.30
2018-02-19T22:12:29.890Z,30.48
2018-02-19T22:14:58.253Z,29.83
2018-02-19T22:17:25.669Z,31.10
2018-02-19T22:19:53.089Z,31.67
2018-02-19T22:22:20.511Z,28.77
2018-02-19T22:24:47.937Z,32.13
2018-02-19T22:27:15.357Z,31.27
2018-02-19T22:29:42.777Z,31.10
2018-02-19T22:32:10.185Z,32.07
2018-02-19T22:34:37.612Z,33.30
2018-02-19T22:37:05.010Z,35.87
2018-02-19T22:39:32.420Z,31.77
2018-02-19T22:41:59.831Z,31.48
2018-02-19T22:44:27.251Z,29.30
2018-02-19T22:46:54.653Z,30.40
2018-02-19T22:49:22.071Z,31.20
2018-02-19T22:51:49.482Z,35.97
2018-02-19T22:54:16.896Z,30.40
2018-02-19T22:56:44.302Z,30.97
2018-02-19T22:59:11.711Z,31.50
2018-02-19T23:01:39.122Z,29.63
2018-02-19T23:04:06.520Z,28.93
2018-02-19T23:06:33.945Z,31.43
2018-02-19T23:09:01.350Z,30.37
2018-02-19T23:11:28.764Z,30.10
2018-02-19T23:13:56.172Z,31.70
2018-02-19T23:16:23.587Z,33.17
2018-02-19T23:18:50.997Z,32.50
2018-02-19T23:21:18.431Z,30.67
2018-02-19T23:23:45.824Z,31.20
2018-02-19T23:26:13.236Z,29.83
2018-02-19T23:28:40.656Z,32.03
2018-02-19T23:31:08.073Z,31.80
2018-02-19T23:33:35.484Z,31.17
2018-02-19T23:36:02.902Z,32.53
2018-02-19T23:38:30.874Z,30.20
2018-02-19T23:40:58.290Z,29.50
2018-02-19T23:43:25.688Z,31.60
2018-02-19T23:45:53.112Z,31.53
2018-02-19T23:48:20.501Z,31.57
2018-02-19T23:50:47.921Z,32.27
2018-02-19T23:53:15.327Z,33.50
2018-02-19T23:55:42.752Z,36.03
2018-02-19T23:58:10.260Z,34.30
